sensor_id;sensor_type;location;lat;lon;timestamp;P1;durP1;ratioP1;P2;durP2;ratioP2
43819;SDS011;67762;52.476;6.046;2023-09-07T00:00:48;1999.90;;;999.90;;
43819;SDS011;67762;52.476;6.046;2023-09-07T00:03:14;1999.90;;;999.90;;
43819;SDS011;67762;52.476;6.046;2023-09-07T00:05:41;1999.90;;;999.90;;
43819;SDS011;67762;52.476;6.046;2023-09-07T00:08:07;1999.90;;;999.90;;
43819;SDS011;67762;52.476;6.046;2023-09-07T00:10:33;1999.90;;;999.90;;
43819;SDS011;67762;52.476;6.046;2023-09-07T00:13:02;1999.90;;;999.90;;
43819;SDS011;67762;52.476;6.046;2023-09-07T00:15:29;1999.90;;;999.90;;
43819;SDS011;67762;52.476;6.046;2023-09-07T00:17:55;1999.90;;;999.90;;
43819;SDS011;67762;52.476;6.046;2023-09-07T00:20:22;1999.90;;;999.90;;
43819;SDS011;67762;52.476;6.046;2023-09-07T00:22:49;1999.90;;;999.90;;
43819;SDS011;67762;52.476;6.046;2023-09-07T00:25:14;1999.90;;;999.90;;
43819;SDS011;67762;52.476;6.046;2023-09-07T00:27:40;1999.90;;;999.90;;
43819;SDS011;67762;52.476;6.046;2023-09-07T00:30:06;1999.90;;;999.90;;
43819;SDS011;67762;52.476;6.046;2023-09-07T00:32:38;1999.90;;;999.90;;
43819;SDS011;67762;52.476;6.046;2023-09-07T00:35:04;1999.90;;;999.90;;
43819;SDS011;67762;52.476;6.046;2023-09-07T00:37:31;1999.90;;;999.90;;
43819;SDS011;67762;52.476;6.046;2023-09-07T00:39:57;1999.90;;;999.90;;
43819;SDS011;67762;52.476;6.046;2023-09-07T00:42:23;1999.90;;;999.90;;
43819;SDS011;67762;52.476;6.046;2023-09-07T00:44:48;1999.90;;;999.90;;
43819;SDS011;67762;52.476;6.046;2023-09-07T00:47:15;1999.90;;;999.90;;
43819;SDS011;67762;52.476;6.046;2023-09-07T00:49:41;1999.90;;;999.90;;
43819;SDS011;67762;52.476;6.046;2023-09-07T00:52:07;1999.90;;;999.90;;
43819;SDS011;67762;52.476;6.046;2023-09-07T00:54:35;1999.90;;;999.90;;
43819;SDS011;67762;52.476;6.046;2023-09-07T00:57:04;1999.90;;;999.90;;
43819;SDS011;67762;52.476;6.046;2023-09-07T00:59:31;1999.90;;;999.90;;
43819;SDS011;67762;52.476;6.046;2023-09-07T01:01:58;1999.90;;;999.90;;
43819;SDS011;67762;52.476;6.046;2023-09-07T01:04:23;1999.90;;;999.90;;
43819;SDS011;67762;52.476;6.046;2023-09-07T01:07:14;1999.90;;;999.90;;
43819;SDS011;67762;52.476;6.046;2023-09-07T01:09:56;1999.90;;;999.90;;
43819;SDS011;67762;52.476;6.046;2023-09-07T01:12:25;1999.90;;;999.90;;
43819;SDS011;67762;52.476;6.046;2023-09-07T01:14:50;1999.90;;;999.90;;
43819;SDS011;67762;52.476;6.046;2023-09-07T01:17:16;1999.90;;;999.90;;
43819;SDS011;67762;52.476;6.046;2023-09-07T01:19:42;1999.90;;;999.90;;
43819;SDS011;67762;52.476;6.046;2023-09-07T01:22:09;1999.90;;;999.90;;
43819;SDS011;67762;52.476;6.046;2023-09-07T01:24:37;1999.90;;;999.90;;
43819;SDS011;67762;52.476;6.046;2023-09-07T01:27:04;1999.90;;;999.90;;
43819;SDS011;67762;52.476;6.046;2023-09-07T01:29:30;1999.90;;;999.90;;
43819;SDS011;67762;52.476;6.046;2023-09-07T01:31:57;1999.90;;;999.90;;
43819;SDS011;67762;52.476;6.046;2023-09-07T01:34:23;1999.90;;;999.90;;
43819;SDS011;67762;52.476;6.046;2023-09-07T01:36:49;1999.90;;;999.90;;
43819;SDS011;67762;52.476;6.046;2023-09-07T01:39:15;1999.90;;;999.90;;
43819;SDS011;67762;52.476;6.046;2023-09-07T01:41:42;1999.90;;;999.90;;
43819;SDS011;67762;52.476;6.046;2023-09-07T01:44:08;1999.90;;;999.90;;
43819;SDS011;67762;52.476;6.046;2023-09-07T01:46:35;1999.90;;;999.90;;
43819;SDS011;67762;52.476;6.046;2023-09-07T01:49:03;1999.90;;;999.90;;
43819;SDS011;67762;52.476;6.046;2023-09-07T01:51:29;1999.90;;;999.90;;
43819;SDS011;67762;52.476;6.046;2023-09-07T01:53:55;1999.90;;;999.90;;
43819;SDS011;67762;52.476;6.046;2023-09-07T01:56:20;1999.90;;;999.90;;
43819;SDS011;67762;52.476;6.046;2023-09-07T01:58:46;1999.90;;;999.90;;
43819;SDS011;67762;52.476;6.046;2023-09-07T02:01:23;1999.90;;;999.90;;
43819;SDS011;67762;52.476;6.046;2023-09-07T02:03:49;1999.90;;;999.90;;
43819;SDS011;67762;52.476;6.046;2023-09-07T02:06:15;1999.90;;;999.90;;
43819;SDS011;67762;52.476;6.046;2023-09-07T02:08:41;1999.90;;;999.90;;
43819;SDS011;67762;52.476;6.046;2023-09-07T02:11:07;1999.90;;;999.90;;
43819;SDS011;67762;52.476;6.046;2023-09-07T02:13:33;1999.90;;;999.90;;
43819;SDS011;67762;52.476;6.046;2023-09-07T02:16:02;1999.90;;;999.90;;
43819;SDS011;67762;52.476;6.046;2023-09-07T02:18:29;1999.90;;;999.90;;
43819;SDS011;67762;52.476;6.046;2023-09-07T02:21:00;1999.90;;;999.90;;
43819;SDS011;67762;52.476;6.046;2023-09-07T02:23:30;1999.90;;;999.90;;
43819;SDS011;67762;52.476;6.046;2023-09-07T02:25:57;1999.90;;;999.90;;
43819;SDS011;67762;52.476;6.046;2023-09-07T02:28:23;1999.90;;;999.90;;
43819;SDS011;67762;52.476;6.046;2023-09-07T02:30:50;1999.90;;;999.90;;
43819;SDS011;67762;52.476;6.046;2023-09-07T02:33:17;1999.90;;;999.90;;
43819;SDS011;67762;52.476;6.046;2023-09-07T02:35:43;1999.90;;;999.90;;
43819;SDS011;67762;52.476;6.046;2023-09-07T02:38:08;1999.90;;;999.90;;
43819;SDS011;67762;52.476;6.046;2023-09-07T02:40:43;1999.90;;;999.90;;
43819;SDS011;67762;52.476;6.046;2023-09-07T02:43:10;1999.90;;;999.90;;
43819;SDS011;67762;52.476;6.046;2023-09-07T02:45:36;1999.90;;;999.90;;
43819;SDS011;67762;52.476;6.046;2023-09-07T02:48:03;1999.90;;;999.90;;
43819;SDS011;67762;52.476;6.046;2023-09-07T02:50:30;1999.90;;;999.90;;
43819;SDS011;67762;52.476;6.046;2023-09-07T02:52:57;1999.90;;;999.90;;
43819;SDS011;67762;52.476;6.046;2023-09-07T02:55:23;1999.90;;;999.90;;
43819;SDS011;67762;52.476;6.046;2023-09-07T02:57:49;1999.90;;;999.90;;
43819;SDS011;67762;52.476;6.046;2023-09-07T03:00:15;1999.90;;;999.90;;
43819;SDS011;67762;52.476;6.046;2023-09-07T03:02:43;1999.90;;;999.90;;
43819;SDS011;67762;52.476;6.046;2023-09-07T03:05:09;1999.90;;;999.90;;
43819;SDS011;67762;52.476;6.046;2023-09-07T03:07:35;1999.90;;;999.90;;
43819;SDS011;67762;52.476;6.046;2023-09-07T03:10:01;1999.90;;;999.90;;
43819;SDS011;67762;52.476;6.046;2023-09-07T03:12:28;1999.90;;;999.90;;
43819;SDS011;67762;52.476;6.046;2023-09-07T03:14:53;1999.90;;;999.90;;
43819;SDS011;67762;52.476;6.046;2023-09-07T03:17:19;1999.90;;;999.90;;
43819;SDS011;67762;52.476;6.046;2023-09-07T03:19:48;1999.90;;;999.90;;
43819;SDS011;67762;52.476;6.046;2023-09-07T03:22:14;1999.90;;;999.90;;
43819;SDS011;67762;52.476;6.046;2023-09-07T03:24:40;1999.90;;;999.90;;
43819;SDS011;67762;52.476;6.046;2023-09-07T03:27:06;1999.90;;;999.90;;
43819;SDS011;67762;52.476;6.046;2023-09-07T03:29:32;1999.90;;;999.90;;
43819;SDS011;67762;52.476;6.046;2023-09-07T03:32:02;1999.90;;;999.90;;
43819;SDS011;67762;52.476;6.046;2023-09-07T03:34:28;1999.90;;;999.90;;
43819;SDS011;67762;52.476;6.046;2023-09-07T03:36:54;1999.90;;;999.90;;
43819;SDS011;67762;52.476;6.046;2023-09-07T03:39:20;1999.90;;;999.90;;
43819;SDS011;67762;52.476;6.046;2023-09-07T03:41:49;1999.90;;;999.90;;
43819;SDS011;67762;52.476;6.046;2023-09-07T03:44:14;1999.90;;;999.90;;
43819;SDS011;67762;52.476;6.046;2023-09-07T03:46:41;1999.90;;;999.90;;
43819;SDS011;67762;52.476;6.046;2023-09-07T03:49:07;1999.90;;;999.90;;
43819;SDS011;67762;52.476;6.046;2023-09-07T03:51:32;1999.90;;;999.90;;
43819;SDS011;67762;52.476;6.046;2023-09-07T03:53:58;1999.90;;;999.90;;
43819;SDS011;67762;52.476;6.046;2023-09-07T03:56:25;1999.90;;;999.90;;
43819;SDS011;67762;52.476;6.046;2023-09-07T03:58:51;1999.90;;;999.90;;
43819;SDS011;67762;52.476;6.046;2023-09-07T04:01:17;1999.90;;;999.90;;
43819;SDS011;67762;52.476;6.046;2023-09-07T04:03:43;1999.90;;;999.90;;
43819;SDS011;67762;52.476;6.046;2023-09-07T04:06:08;1999.90;;;999.90;;
43819;SDS011;67762;52.476;6.046;2023-09-07T04:08:34;1999.90;;;999.90;;
43819;SDS011;67762;52.476;6.046;2023-09-07T04:11:04;1999.90;;;999.90;;
43819;SDS011;67762;52.476;6.046;2023-09-07T04:13:31;1999.90;;;999.90;;
43819;SDS011;67762;52.476;6.046;2023-09-07T04:15:58;1999.90;;;999.90;;
43819;SDS011;67762;52.476;6.046;2023-09-07T04:18:25;1999.90;;;999.90;;
43819;SDS011;67762;52.476;6.046;2023-09-07T04:20:51;1999.90;;;999.90;;
43819;SDS011;67762;52.476;6.046;2023-09-07T04:23:16;1999.90;;;999.90;;
43819;SDS011;67762;52.476;6.046;2023-09-07T04:25:43;1999.90;;;999.90;;
43819;SDS011;67762;52.476;6.046;2023-09-07T04:28:09;1999.90;;;999.90;;
43819;SDS011;67762;52.476;6.046;2023-09-07T04:30:38;1999.90;;;999.90;;
43819;SDS011;67762;52.476;6.046;2023-09-07T04:33:05;1999.90;;;999.90;;
43819;SDS011;67762;52.476;6.046;2023-09-07T04:35:33;1999.90;;;999.90;;
43819;SDS011;67762;52.476;6.046;2023-09-07T04:37:58;1999.90;;;999.90;;
43819;SDS011;67762;52.476;6.046;2023-09-07T04:40:24;1999.90;;;999.90;;
43819;SDS011;67762;52.476;6.046;2023-09-07T04:42:50;1999.90;;;999.90;;
43819;SDS011;67762;52.476;6.046;2023-09-07T04:45:17;1999.90;;;999.90;;
43819;SDS011;67762;52.476;6.046;2023-09-07T04:47:43;1999.90;;;999.90;;
43819;SDS011;67762;52.476;6.046;2023-09-07T04:50:10;1999.90;;;999.90;;
43819;SDS011;67762;52.476;6.046;2023-09-07T04:52:36;1999.90;;;999.90;;
43819;SDS011;67762;52.476;6.046;2023-09-07T04:55:02;1999.90;;;999.90;;
43819;SDS011;67762;52.476;6.046;2023-09-07T04:57:30;1999.90;;;999.90;;
43819;SDS011;67762;52.476;6.046;2023-09-07T04:59:56;1999.90;;;999.90;;
43819;SDS011;67762;52.476;6.046;2023-09-07T05:02:22;1999.90;;;999.90;;
43819;SDS011;67762;52.476;6.046;2023-09-07T05:04:47;1999.90;;;999.90;;
43819;SDS011;67762;52.476;6.046;2023-09-07T05:07:13;1999.90;;;999.90;;
43819;SDS011;67762;52.476;6.046;2023-09-07T05:09:39;1999.90;;;999.90;;
43819;SDS011;67762;52.476;6.046;2023-09-07T05:12:05;1999.90;;;999.90;;
43819;SDS011;67762;52.476;6.046;2023-09-07T05:14:31;1999.90;;;999.90;;
43819;SDS011;67762;52.476;6.046;2023-09-07T05:16:56;1999.90;;;999.90;;
43819;SDS011;67762;52.476;6.046;2023-09-07T05:19:23;1999.90;;;999.90;;
43819;SDS011;67762;52.476;6.046;2023-09-07T05:21:49;1999.90;;;999.90;;
43819;SDS011;67762;52.476;6.046;2023-09-07T05:24:14;1999.90;;;999.90;;
43819;SDS011;67762;52.476;6.046;2023-09-07T05:26:44;1999.90;;;999.90;;
43819;SDS011;67762;52.476;6.046;2023-09-07T05:29:10;1999.90;;;999.90;;
43819;SDS011;67762;52.476;6.046;2023-09-07T05:31:37;1999.90;;;999.90;;
43819;SDS011;67762;52.476;6.046;2023-09-07T05:34:03;1999.90;;;999.90;;
43819;SDS011;67762;52.476;6.046;2023-09-07T05:36:29;1999.90;;;999.90;;
43819;SDS011;67762;52.476;6.046;2023-09-07T05:38:54;1999.90;;;999.90;;
43819;SDS011;67762;52.476;6.046;2023-09-07T05:41:20;1999.90;;;999.90;;
43819;SDS011;67762;52.476;6.046;2023-09-07T05:43:46;1999.90;;;999.90;;
43819;SDS011;67762;52.476;6.046;2023-09-07T05:46:11;1999.90;;;999.90;;
43819;SDS011;67762;52.476;6.046;2023-09-07T05:48:37;1999.90;;;999.90;;
43819;SDS011;67762;52.476;6.046;2023-09-07T05:51:03;1999.90;;;999.90;;
43819;SDS011;67762;52.476;6.046;2023-09-07T05:53:29;1999.90;;;999.90;;
43819;SDS011;67762;52.476;6.046;2023-09-07T05:55:54;1999.90;;;999.90;;
43819;SDS011;67762;52.476;6.046;2023-09-07T05:58:20;1999.90;;;999.90;;
43819;SDS011;67762;52.476;6.046;2023-09-07T06:00:46;1999.90;;;999.90;;
43819;SDS011;67762;52.476;6.046;2023-09-07T06:03:12;1999.90;;;999.90;;
43819;SDS011;67762;52.476;6.046;2023-09-07T06:05:38;1999.90;;;999.90;;
43819;SDS011;67762;52.476;6.046;2023-09-07T06:08:06;1999.90;;;999.90;;
43819;SDS011;67762;52.476;6.046;2023-09-07T06:10:33;1999.90;;;999.90;;
43819;SDS011;67762;52.476;6.046;2023-09-07T06:12:59;1999.90;;;999.90;;
43819;SDS011;67762;52.476;6.046;2023-09-07T06:15:25;1999.90;;;999.90;;
43819;SDS011;67762;52.476;6.046;2023-09-07T06:17:52;1999.90;;;999.90;;
43819;SDS011;67762;52.476;6.046;2023-09-07T06:20:18;1999.90;;;999.90;;
43819;SDS011;67762;52.476;6.046;2023-09-07T06:22:45;1999.90;;;999.90;;
43819;SDS011;67762;52.476;6.046;2023-09-07T06:25:11;1999.90;;;999.90;;
43819;SDS011;67762;52.476;6.046;2023-09-07T06:27:37;1999.90;;;999.90;;
43819;SDS011;67762;52.476;6.046;2023-09-07T06:30:05;1999.90;;;999.90;;
43819;SDS011;67762;52.476;6.046;2023-09-07T06:32:31;1999.90;;;999.90;;
43819;SDS011;67762;52.476;6.046;2023-09-07T06:34:58;1999.90;;;999.90;;
43819;SDS011;67762;52.476;6.046;2023-09-07T06:37:24;1999.90;;;999.90;;
43819;SDS011;67762;52.476;6.046;2023-09-07T06:39:50;1999.90;;;999.90;;
43819;SDS011;67762;52.476;6.046;2023-09-07T06:42:16;1999.90;;;999.90;;
43819;SDS011;67762;52.476;6.046;2023-09-07T06:44:49;1999.90;;;999.90;;
43819;SDS011;67762;52.476;6.046;2023-09-07T06:47:17;1999.90;;;999.90;;
43819;SDS011;67762;52.476;6.046;2023-09-07T06:49:42;1999.90;;;999.90;;
43819;SDS011;67762;52.476;6.046;2023-09-07T06:52:08;1999.90;;;999.90;;
43819;SDS011;67762;52.476;6.046;2023-09-07T06:54:36;1999.90;;;999.90;;
43819;SDS011;67762;52.476;6.046;2023-09-07T06:57:01;1999.90;;;999.90;;
43819;SDS011;67762;52.476;6.046;2023-09-07T06:59:27;1999.90;;;999.90;;
43819;SDS011;67762;52.476;6.046;2023-09-07T07:01:53;1999.90;;;999.90;;
43819;SDS011;67762;52.476;6.046;2023-09-07T07:04:19;1999.90;;;999.90;;
43819;SDS011;67762;52.476;6.046;2023-09-07T07:06:45;1999.90;;;999.90;;
43819;SDS011;67762;52.476;6.046;2023-09-07T07:09:11;1999.90;;;999.90;;
43819;SDS011;67762;52.476;6.046;2023-09-07T07:11:37;1999.90;;;999.90;;
43819;SDS011;67762;52.476;6.046;2023-09-07T07:14:05;1999.90;;;999.90;;
43819;SDS011;67762;52.476;6.046;2023-09-07T07:16:31;1999.90;;;999.90;;
43819;SDS011;67762;52.476;6.046;2023-09-07T07:18:57;1999.90;;;999.90;;
43819;SDS011;67762;52.476;6.046;2023-09-07T07:21:23;1999.90;;;999.90;;
43819;SDS011;67762;52.476;6.046;2023-09-07T07:23:49;1999.90;;;999.90;;
43819;SDS011;67762;52.476;6.046;2023-09-07T07:26:15;1999.90;;;999.90;;
43819;SDS011;67762;52.476;6.046;2023-09-07T07:28:41;1999.90;;;999.90;;
43819;SDS011;67762;52.476;6.046;2023-09-07T07:31:07;1999.90;;;999.90;;
43819;SDS011;67762;52.476;6.046;2023-09-07T07:33:35;1999.90;;;999.90;;
43819;SDS011;67762;52.476;6.046;2023-09-07T07:36:01;1999.90;;;999.90;;
43819;SDS011;67762;52.476;6.046;2023-09-07T07:38:27;1999.90;;;999.90;;
43819;SDS011;67762;52.476;6.046;2023-09-07T07:40:53;1999.90;;;999.90;;
43819;SDS011;67762;52.476;6.046;2023-09-07T07:43:18;1999.90;;;999.90;;
43819;SDS011;67762;52.476;6.046;2023-09-07T07:45:44;1999.90;;;999.90;;
43819;SDS011;67762;52.476;6.046;2023-09-07T07:48:10;1999.90;;;999.90;;
43819;SDS011;67762;52.476;6.046;2023-09-07T07:50:39;1999.90;;;999.90;;
43819;SDS011;67762;52.476;6.046;2023-09-07T07:53:05;1999.90;;;999.90;;
43819;SDS011;67762;52.476;6.046;2023-09-07T07:55:38;1999.90;;;999.90;;
43819;SDS011;67762;52.476;6.046;2023-09-07T07:58:10;1999.90;;;999.90;;
43819;SDS011;67762;52.476;6.046;2023-09-07T08:00:38;1999.90;;;999.90;;
43819;SDS011;67762;52.476;6.046;2023-09-07T08:03:04;1999.90;;;999.90;;
43819;SDS011;67762;52.476;6.046;2023-09-07T08:05:35;1999.90;;;999.90;;
43819;SDS011;67762;52.476;6.046;2023-09-07T08:08:01;1999.90;;;999.90;;
43819;SDS011;67762;52.476;6.046;2023-09-07T08:10:28;1999.90;;;999.90;;
43819;SDS011;67762;52.476;6.046;2023-09-07T08:12:54;1999.90;;;999.90;;
43819;SDS011;67762;52.476;6.046;2023-09-07T08:15:21;1999.90;;;999.90;;
43819;SDS011;67762;52.476;6.046;2023-09-07T08:17:48;1999.90;;;999.90;;
43819;SDS011;67762;52.476;6.046;2023-09-07T08:20:14;1999.90;;;999.90;;
43819;SDS011;67762;52.476;6.046;2023-09-07T08:22:40;1999.90;;;999.90;;
43819;SDS011;67762;52.476;6.046;2023-09-07T08:25:08;1999.90;;;999.90;;
43819;SDS011;67762;52.476;6.046;2023-09-07T08:27:35;1999.90;;;999.90;;
43819;SDS011;67762;52.476;6.046;2023-09-07T08:30:01;1999.90;;;999.90;;
43819;SDS011;67762;52.476;6.046;2023-09-07T08:32:27;1999.90;;;999.90;;
43819;SDS011;67762;52.476;6.046;2023-09-07T08:34:52;1999.90;;;999.90;;
43819;SDS011;67762;52.476;6.046;2023-09-07T08:37:21;1999.90;;;999.90;;
43819;SDS011;67762;52.476;6.046;2023-09-07T08:39:48;1999.90;;;999.90;;
43819;SDS011;67762;52.476;6.046;2023-09-07T08:42:13;1999.90;;;999.90;;
43819;SDS011;67762;52.476;6.046;2023-09-07T08:44:39;1999.90;;;999.90;;
43819;SDS011;67762;52.476;6.046;2023-09-07T08:47:07;1999.90;;;999.90;;
43819;SDS011;67762;52.476;6.046;2023-09-07T08:49:34;1999.90;;;999.90;;
43819;SDS011;67762;52.476;6.046;2023-09-07T08:52:01;1999.90;;;999.90;;
43819;SDS011;67762;52.476;6.046;2023-09-07T08:54:28;1999.90;;;999.90;;
43819;SDS011;67762;52.476;6.046;2023-09-07T08:56:56;1999.90;;;999.90;;
43819;SDS011;67762;52.476;6.046;2023-09-07T08:59:22;1999.90;;;999.90;;
43819;SDS011;67762;52.476;6.046;2023-09-07T09:01:48;1999.90;;;999.90;;
43819;SDS011;67762;52.476;6.046;2023-09-07T09:04:13;1999.90;;;999.90;;
43819;SDS011;67762;52.476;6.046;2023-09-07T09:06:41;1999.90;;;999.90;;
43819;SDS011;67762;52.476;6.046;2023-09-07T09:09:06;1999.90;;;999.90;;
43819;SDS011;67762;52.476;6.046;2023-09-07T09:11:32;1999.90;;;999.90;;
43819;SDS011;67762;52.476;6.046;2023-09-07T09:13:58;1999.90;;;999.90;;
43819;SDS011;67762;52.476;6.046;2023-09-07T09:16:24;1999.90;;;999.90;;
43819;SDS011;67762;52.476;6.046;2023-09-07T09:18:51;1999.90;;;999.90;;
43819;SDS011;67762;52.476;6.046;2023-09-07T09:21:21;1999.90;;;999.90;;
43819;SDS011;67762;52.476;6.046;2023-09-07T09:23:49;1999.90;;;999.90;;
43819;SDS011;67762;52.476;6.046;2023-09-07T09:26:16;1999.90;;;999.90;;
43819;SDS011;67762;52.476;6.046;2023-09-07T09:28:42;1999.90;;;999.90;;
43819;SDS011;67762;52.476;6.046;2023-09-07T09:31:10;1999.90;;;999.90;;
43819;SDS011;67762;52.476;6.046;2023-09-07T09:33:40;1999.90;;;999.90;;
43819;SDS011;67762;52.476;6.046;2023-09-07T09:36:13;1999.90;;;999.90;;
43819;SDS011;67762;52.476;6.046;2023-09-07T09:38:39;1999.90;;;999.90;;
43819;SDS011;67762;52.476;6.046;2023-09-07T09:41:05;1999.90;;;999.90;;
43819;SDS011;67762;52.476;6.046;2023-09-07T09:43:31;1999.90;;;999.90;;
43819;SDS011;67762;52.476;6.046;2023-09-07T09:45:57;1999.90;;;999.90;;
43819;SDS011;67762;52.476;6.046;2023-09-07T09:48:25;1088.72;;;583.35;;
43819;SDS011;67762;52.476;6.046;2023-09-07T09:50:52;1999.90;;;999.90;;
43819;SDS011;67762;52.476;6.046;2023-09-07T09:53:19;350.23;;;332.10;;
43819;SDS011;67762;52.476;6.046;2023-09-07T09:55:49;307.70;;;292.27;;
43819;SDS011;67762;52.476;6.046;2023-09-07T09:58:17;291.67;;;277.23;;
43819;SDS011;67762;52.476;6.046;2023-09-07T10:00:44;324.33;;;308.10;;
43819;SDS011;67762;52.476;6.046;2023-09-07T10:03:18;395.60;;;374.20;;
43819;SDS011;67762;52.476;6.046;2023-09-07T10:05:51;376.95;;;356.48;;
43819;SDS011;67762;52.476;6.046;2023-09-07T10:08:17;376.20;;;356.27;;
43819;SDS011;67762;52.476;6.046;2023-09-07T10:10:48;451.48;;;425.08;;
43819;SDS011;67762;52.476;6.046;2023-09-07T10:13:28;356.88;;;336.85;;
43819;SDS011;67762;52.476;6.046;2023-09-07T10:16:01;340.42;;;322.73;;
43819;SDS011;67762;52.476;6.046;2023-09-07T10:18:35;293.58;;;278.70;;
43819;SDS011;67762;52.476;6.046;2023-09-07T10:21:04;287.98;;;273.58;;
43819;SDS011;67762;52.476;6.046;2023-09-07T10:23:41;264.55;;;251.48;;
43819;SDS011;67762;52.476;6.046;2023-09-07T10:26:16;274.13;;;260.42;;
43819;SDS011;67762;52.476;6.046;2023-09-07T10:28:43;191.50;;;181.50;;
43819;SDS011;67762;52.476;6.046;2023-09-07T10:31:13;314.17;;;296.65;;
43819;SDS011;67762;52.476;6.046;2023-09-07T10:33:39;191.57;;;181.57;;
43819;SDS011;67762;52.476;6.046;2023-09-07T10:36:05;193.27;;;183.52;;
43819;SDS011;67762;52.476;6.046;2023-09-07T10:38:32;290.13;;;275.00;;
43819;SDS011;67762;52.476;6.046;2023-09-07T10:41:02;172.27;;;162.90;;
43819;SDS011;67762;52.476;6.046;2023-09-07T10:43:30;221.15;;;209.70;;
43819;SDS011;67762;52.476;6.046;2023-09-07T10:45:59;182.73;;;173.48;;
43819;SDS011;67762;52.476;6.046;2023-09-07T10:48:26;243.05;;;230.23;;
43819;SDS011;67762;52.476;6.046;2023-09-07T10:50:54;181.02;;;171.68;;
43819;SDS011;67762;52.476;6.046;2023-09-07T10:53:26;149.32;;;141.38;;
43819;SDS011;67762;52.476;6.046;2023-09-07T10:55:53;251.75;;;238.55;;
43819;SDS011;67762;52.476;6.046;2023-09-07T10:58:28;198.00;;;187.38;;
43819;SDS011;67762;52.476;6.046;2023-09-07T11:00:58;178.25;;;168.63;;
43819;SDS011;67762;52.476;6.046;2023-09-07T11:03:25;275.45;;;259.90;;
43819;SDS011;67762;52.476;6.046;2023-09-07T11:08:48;139.13;;;131.98;;
43819;SDS011;67762;52.476;6.046;2023-09-07T11:11:14;137.05;;;130.02;;
43819;SDS011;67762;52.476;6.046;2023-09-07T11:13:40;193.80;;;183.73;;
43819;SDS011;67762;52.476;6.046;2023-09-07T11:16:09;137.93;;;130.38;;
43819;SDS011;67762;52.476;6.046;2023-09-07T11:18:35;197.52;;;187.35;;
43819;SDS011;67762;52.476;6.046;2023-09-07T11:21:01;119.80;;;113.40;;
43819;SDS011;67762;52.476;6.046;2023-09-07T11:23:33;111.95;;;105.40;;
43819;SDS011;67762;52.476;6.046;2023-09-07T11:26:05;159.63;;;150.90;;
43819;SDS011;67762;52.476;6.046;2023-09-07T11:28:31;130.90;;;123.80;;
43819;SDS011;67762;52.476;6.046;2023-09-07T11:30:57;120.25;;;113.88;;
43819;SDS011;67762;52.476;6.046;2023-09-07T11:33:23;124.78;;;117.88;;
43819;SDS011;67762;52.476;6.046;2023-09-07T11:35:50;203.73;;;193.25;;
43819;SDS011;67762;52.476;6.046;2023-09-07T11:38:16;121.63;;;115.32;;
43819;SDS011;67762;52.476;6.046;2023-09-07T11:40:42;119.72;;;113.63;;
43819;SDS011;67762;52.476;6.046;2023-09-07T11:43:13;164.05;;;155.57;;
43819;SDS011;67762;52.476;6.046;2023-09-07T11:45:40;111.57;;;105.63;;
43819;SDS011;67762;52.476;6.046;2023-09-07T11:48:07;237.50;;;225.13;;
43819;SDS011;67762;52.476;6.046;2023-09-07T11:50:36;115.07;;;108.93;;
43819;SDS011;67762;52.476;6.046;2023-09-07T11:53:03;124.18;;;117.53;;
43819;SDS011;67762;52.476;6.046;2023-09-07T11:55:32;128.85;;;122.22;;
43819;SDS011;67762;52.476;6.046;2023-09-07T11:58:03;228.93;;;216.70;;
43819;SDS011;67762;52.476;6.046;2023-09-07T12:00:32;109.05;;;103.43;;
43819;SDS011;67762;52.476;6.046;2023-09-07T12:02:58;126.75;;;120.07;;
43819;SDS011;67762;52.476;6.046;2023-09-07T12:05:24;179.40;;;168.85;;
43819;SDS011;67762;52.476;6.046;2023-09-07T12:07:50;193.30;;;182.45;;
43819;SDS011;67762;52.476;6.046;2023-09-07T12:10:16;165.02;;;156.55;;
43819;SDS011;67762;52.476;6.046;2023-09-07T12:12:42;253.95;;;239.55;;
43819;SDS011;67762;52.476;6.046;2023-09-07T12:15:09;143.32;;;136.02;;
43819;SDS011;67762;52.476;6.046;2023-09-07T12:17:38;180.80;;;170.80;;
43819;SDS011;67762;52.476;6.046;2023-09-07T12:20:04;213.55;;;201.32;;
43819;SDS011;67762;52.476;6.046;2023-09-07T12:22:34;265.42;;;249.73;;
43819;SDS011;67762;52.476;6.046;2023-09-07T12:25:01;211.52;;;200.02;;
43819;SDS011;67762;52.476;6.046;2023-09-07T12:27:27;195.48;;;185.13;;
43819;SDS011;67762;52.476;6.046;2023-09-07T12:29:53;186.73;;;177.13;;
43819;SDS011;67762;52.476;6.046;2023-09-07T12:32:19;129.25;;;122.60;;
43819;SDS011;67762;52.476;6.046;2023-09-07T12:34:44;119.78;;;113.20;;
43819;SDS011;67762;52.476;6.046;2023-09-07T12:37:10;275.02;;;257.65;;
43819;SDS011;67762;52.476;6.046;2023-09-07T12:39:35;153.90;;;146.13;;
43819;SDS011;67762;52.476;6.046;2023-09-07T12:42:01;239.48;;;225.88;;
43819;SDS011;67762;52.476;6.046;2023-09-07T12:44:27;154.77;;;146.50;;
43819;SDS011;67762;52.476;6.046;2023-09-07T12:46:53;141.73;;;134.50;;
43819;SDS011;67762;52.476;6.046;2023-09-07T12:49:18;225.90;;;213.77;;
43819;SDS011;67762;52.476;6.046;2023-09-07T12:51:47;144.55;;;137.13;;
43819;SDS011;67762;52.476;6.046;2023-09-07T12:54:12;158.60;;;150.45;;
43819;SDS011;67762;52.476;6.046;2023-09-07T12:56:38;125.45;;;118.90;;
43819;SDS011;67762;52.476;6.046;2023-09-07T12:59:04;240.65;;;227.20;;
43819;SDS011;67762;52.476;6.046;2023-09-07T13:01:30;312.48;;;293.90;;
43819;SDS011;67762;52.476;6.046;2023-09-07T13:03:56;317.35;;;295.98;;
43819;SDS011;67762;52.476;6.046;2023-09-07T13:06:22;155.82;;;147.90;;
43819;SDS011;67762;52.476;6.046;2023-09-07T13:08:48;155.15;;;147.13;;
43819;SDS011;67762;52.476;6.046;2023-09-07T13:11:14;152.20;;;144.30;;
43819;SDS011;67762;52.476;6.046;2023-09-07T13:13:39;224.65;;;212.65;;
43819;SDS011;67762;52.476;6.046;2023-09-07T13:16:05;143.35;;;136.02;;
43819;SDS011;67762;52.476;6.046;2023-09-07T13:18:31;268.13;;;253.15;;
43819;SDS011;67762;52.476;6.046;2023-09-07T13:20:57;158.02;;;149.90;;
43819;SDS011;67762;52.476;6.046;2023-09-07T13:23:26;284.15;;;265.20;;
43819;SDS011;67762;52.476;6.046;2023-09-07T13:25:54;146.05;;;138.65;;
43819;SDS011;67762;52.476;6.046;2023-09-07T13:28:20;121.88;;;115.47;;
43819;SDS011;67762;52.476;6.046;2023-09-07T13:30:46;183.50;;;173.65;;
43819;SDS011;67762;52.476;6.046;2023-09-07T13:33:11;143.98;;;136.68;;
43819;SDS011;67762;52.476;6.046;2023-09-07T13:35:37;140.30;;;133.23;;
43819;SDS011;67762;52.476;6.046;2023-09-07T13:38:04;185.57;;;175.95;;
43819;SDS011;67762;52.476;6.046;2023-09-07T13:40:30;153.40;;;145.32;;
43819;SDS011;67762;52.476;6.046;2023-09-07T13:42:55;162.80;;;154.52;;
43819;SDS011;67762;52.476;6.046;2023-09-07T13:45:24;332.30;;;312.27;;
43819;SDS011;67762;52.476;6.046;2023-09-07T13:47:50;246.40;;;231.40;;
43819;SDS011;67762;52.476;6.046;2023-09-07T13:50:16;316.77;;;298.63;;